sensor_id;sensor_type;location;lat;lon;timestamp;pressure;altitude;pressure_sealevel;temperature;humidity
20624;BME280;10471;42.736;23.346;2023-07-13T00:00:38;95761.66;;;20.92;100.00
20624;BME280;10471;42.736;23.346;2023-07-13T00:03:04;95767.66;;;20.89;100.00
20624;BME280;10471;42.736;23.346;2023-07-13T00:05:30;95762.44;;;20.92;100.00
20624;BME280;10471;42.736;23.346;2023-07-13T00:07:56;95768.25;;;20.94;100.00
20624;BME280;10471;42.736;23.346;2023-07-13T00:10:22;95762.31;;;20.89;100.00
20624;BME280;10471;42.736;23.346;2023-07-13T00:12:48;95767.66;;;20.89;100.00
20624;BME280;10471;42.736;23.346;2023-07-13T00:15:17;95766.09;;;20.88;100.00
20624;BME280;10471;42.736;23.346;2023-07-13T00:17:46;95765.19;;;20.84;100.00
20624;BME280;10471;42.736;23.346;2023-07-13T00:20:12;95762.06;;;20.82;100.00
20624;BME280;10471;42.736;23.346;2023-07-13T00:22:38;95755.16;;;20.81;100.00
20624;BME280;10471;42.736;23.346;2023-07-13T00:25:04;95755.78;;;20.78;100.00
20624;BME280;10471;42.736;23.346;2023-07-13T00:27:29;95746.06;;;20.73;100.00
20624;BME280;10471;42.736;23.346;2023-07-13T00:29:58;95739.31;;;20.67;100.00
20624;BME280;10471;42.736;23.346;2023-07-13T00:32:24;95737.28;;;20.64;100.00
20624;BME280;10471;42.736;23.346;2023-07-13T00:34:52;95740.50;;;20.58;100.00
20624;BME280;10471;42.736;23.346;2023-07-13T00:37:17;95739.72;;;20.57;100.00
20624;BME280;10471;42.736;23.346;2023-07-13T00:39:43;95751.22;;;20.58;100.00
20624;BME280;10471;42.736;23.346;2023-07-13T00:42:08;95747.97;;;20.52;100.00
20624;BME280;10471;42.736;23.346;2023-07-13T00:44:34;95750.31;;;20.54;100.00
20624;BME280;10471;42.736;23.346;2023-07-13T00:46:59;95754.75;;;20.50;100.00
20624;BME280;10471;42.736;23.346;2023-07-13T00:49:26;95747.34;;;20.47;100.00
20624;BME280;10471;42.736;23.346;2023-07-13T00:51:58;95735.59;;;20.40;100.00
20624;BME280;10471;42.736;23.346;2023-07-13T00:54:29;95736.59;;;20.35;100.00
20624;BME280;10471;42.736;23.346;2023-07-13T00:56:58;95739.91;;;20.32;100.00
20624;BME280;10471;42.736;23.346;2023-07-13T00:59:26;95745.00;;;20.25;100.00
20624;BME280;10471;42.736;23.346;2023-07-13T01:01:52;95728.22;;;20.16;100.00
20624;BME280;10471;42.736;23.346;2023-07-13T01:04:18;95737.63;;;20.22;100.00
20624;BME280;10471;42.736;23.346;2023-07-13T01:06:44;95734.19;;;20.22;100.00
20624;BME280;10471;42.736;23.346;2023-07-13T01:09:11;95739.63;;;20.25;100.00
20624;BME280;10471;42.736;23.346;2023-07-13T01:11:37;95737.63;;;20.22;100.00
20624;BME280;10471;42.736;23.346;2023-07-13T01:14:03;95745.00;;;20.25;100.00
20624;BME280;10471;42.736;23.346;2023-07-13T01:16:31;95745.00;;;20.25;100.00
20624;BME280;10471;42.736;23.346;2023-07-13T01:18:57;95737.75;;;20.26;100.00
20624;BME280;10471;42.736;23.346;2023-07-13T01:21:32;95739.97;;;20.24;100.00
20624;BME280;10471;42.736;23.346;2023-07-13T01:23:57;95739.84;;;20.20;100.00
20624;BME280;10471;42.736;23.346;2023-07-13T01:26:23;95735.16;;;20.17;100.00
20624;BME280;10471;42.736;23.346;2023-07-13T01:28:48;95733.44;;;20.13;100.00
20624;BME280;10471;42.736;23.346;2023-07-13T01:31:14;95733.28;;;20.09;100.00
20624;BME280;10471;42.736;23.346;2023-07-13T01:33:40;95732.38;;;20.05;100.00
20624;BME280;10471;42.736;23.346;2023-07-13T01:36:07;95736.81;;;20.01;100.00
20624;BME280;10471;42.736;23.346;2023-07-13T01:38:33;95732.75;;;19.95;100.00
20624;BME280;10471;42.736;23.346;2023-07-13T01:40:58;95733.88;;;19.94;100.00
20624;BME280;10471;42.736;23.346;2023-07-13T01:43:24;95730.44;;;19.94;100.00
20624;BME280;10471;42.736;23.346;2023-07-13T01:45:50;95731.53;;;19.93;100.00
20624;BME280;10471;42.736;23.346;2023-07-13T01:48:15;95725.84;;;19.94;100.00
20624;BME280;10471;42.736;23.346;2023-07-13T01:50:41;95728.38;;;19.91;100.00
20624;BME280;10471;42.736;23.346;2023-07-13T01:53:06;95727.13;;;19.88;100.00
20624;BME280;10471;42.736;23.346;2023-07-13T01:55:32;95734.69;;;19.86;100.00
20624;BME280;10471;42.736;23.346;2023-07-13T01:57:58;95737.22;;;19.83;100.00
20624;BME280;10471;42.736;23.346;2023-07-13T02:00:24;95733.63;;;19.79;100.00
20624;BME280;10471;42.736;23.346;2023-07-13T02:02:50;95740.28;;;19.73;100.00
20624;BME280;10471;42.736;23.346;2023-07-13T02:05:16;95737.63;;;19.65;100.00
20624;BME280;10471;42.736;23.346;2023-07-13T02:07:41;95739.06;;;19.62;100.00
20624;BME280;10471;42.736;23.346;2023-07-13T02:10:08;95740.97;;;19.62;100.00
20624;BME280;10471;42.736;23.346;2023-07-13T02:12:34;95740.50;;;19.60;100.00
20624;BME280;10471;42.736;23.346;2023-07-13T02:14:59;95736.56;;;19.57;100.00
20624;BME280;10471;42.736;23.346;2023-07-13T02:17:26;95745.53;;;19.53;100.00
20624;BME280;10471;42.736;23.346;2023-07-13T02:19:52;95745.44;;;19.49;100.00
20624;BME280;10471;42.736;23.346;2023-07-13T02:22:18;95745.28;;;19.46;100.00
20624;BME280;10471;42.736;23.346;2023-07-13T02:24:43;95747.47;;;19.44;100.00
20624;BME280;10471;42.736;23.346;2023-07-13T02:27:09;95749.22;;;19.40;100.00
20624;BME280;10471;42.736;23.346;2023-07-13T02:29:34;95745.94;;;19.34;100.00
20624;BME280;10471;42.736;23.346;2023-07-13T02:31:59;95754.94;;;19.30;100.00
20624;BME280;10471;42.736;23.346;2023-07-13T02:34:25;95748.84;;;19.21;100.00
20624;BME280;10471;42.736;23.346;2023-07-13T02:36:50;95755.72;;;19.22;100.00
20624;BME280;10471;42.736;23.346;2023-07-13T02:39:16;95758.28;;;19.18;100.00
20624;BME280;10471;42.736;23.346;2023-07-13T02:41:41;95755.91;;;19.17;100.00
20624;BME280;10471;42.736;23.346;2023-07-13T02:44:07;95751.22;;;19.14;100.00
20624;BME280;10471;42.736;23.346;2023-07-13T02:46:34;95757.81;;;19.16;100.00
20624;BME280;10471;42.736;23.346;2023-07-13T02:49:00;95756.22;;;19.15;100.00
20624;BME280;10471;42.736;23.346;2023-07-13T02:51:26;95754.81;;;19.18;100.00
20624;BME280;10471;42.736;23.346;2023-07-13T02:53:52;95761.72;;;19.19;100.00
20624;BME280;10471;42.736;23.346;2023-07-13T02:56:22;95762.81;;;19.18;100.00
20624;BME280;10471;42.736;23.346;2023-07-13T02:58:47;95767.06;;;19.19;100.00
20624;BME280;10471;42.736;23.346;2023-07-13T03:01:13;95757.97;;;19.20;100.00
20624;BME280;10471;42.736;23.346;2023-07-13T03:03:45;95756.38;;;19.19;100.00
20624;BME280;10471;42.736;23.346;2023-07-13T03:06:11;95761.25;;;19.17;100.00
20624;BME280;10471;42.736;23.346;2023-07-13T03:08:36;95776.03;;;19.14;100.00
20624;BME280;10471;42.736;23.346;2023-07-13T03:11:08;95775.88;;;19.11;100.00
20624;BME280;10471;42.736;23.346;2023-07-13T03:13:33;95779.19;;;19.08;100.00
20624;BME280;10471;42.736;23.346;2023-07-13T03:16:00;95778.69;;;19.06;100.00
20624;BME280;10471;42.736;23.346;2023-07-13T03:18:28;95778.84;;;19.01;100.00
20624;BME280;10471;42.736;23.346;2023-07-13T03:20:54;95766.63;;;19.00;100.00
20624;BME280;10471;42.736;23.346;2023-07-13T03:23:20;95772.59;;;18.97;100.00
20624;BME280;10471;42.736;23.346;2023-07-13T03:25:46;95774.47;;;18.97;100.00
20624;BME280;10471;42.736;23.346;2023-07-13T03:28:13;95775.25;;;18.97;100.00
20624;BME280;10471;42.736;23.346;2023-07-13T03:30:38;95771.81;;;18.97;100.00
20624;BME280;10471;42.736;23.346;2023-07-13T03:33:04;95783.75;;;18.99;100.00
20624;BME280;10471;42.736;23.346;2023-07-13T03:35:29;95779.97;;;19.00;100.00
20624;BME280;10471;42.736;23.346;2023-07-13T03:37:55;95776.19;;;19.01;100.00
20624;BME280;10471;42.736;23.346;2023-07-13T03:40:20;95779.34;;;19.03;100.00
20624;BME280;10471;42.736;23.346;2023-07-13T03:42:46;95780.28;;;19.07;100.00
20624;BME280;10471;42.736;23.346;2023-07-13T03:45:12;95771.66;;;19.10;100.00
20624;BME280;10471;42.736;23.346;2023-07-13T03:47:37;95773.69;;;19.13;100.00
20624;BME280;10471;42.736;23.346;2023-07-13T03:50:03;95778.38;;;19.16;100.00
20624;BME280;10471;42.736;23.346;2023-07-13T03:52:28;95774.00;;;19.20;100.00
20624;BME280;10471;42.736;23.346;2023-07-13T03:54:54;95778.69;;;19.23;100.00
20624;BME280;10471;42.736;23.346;2023-07-13T03:57:19;95773.97;;;19.28;100.00
20624;BME280;10471;42.736;23.346;2023-07-13T03:59:45;95779.91;;;19.34;100.00
20624;BME280;10471;42.736;23.346;2023-07-13T04:02:10;95774.88;;;19.41;100.00
20624;BME280;10471;42.736;23.346;2023-07-13T04:04:35;95771.69;;;19.47;100.00
20624;BME280;10471;42.736;23.346;2023-07-13T04:07:01;95772.28;;;19.53;100.00
20624;BME280;10471;42.736;23.346;2023-07-13T04:09:26;95767.56;;;19.58;100.00
20624;BME280;10471;42.736;23.346;2023-07-13T04:11:51;95767.53;;;19.67;100.00
20624;BME280;10471;42.736;23.346;2023-07-13T04:14:17;95769.03;;;19.76;100.00
20624;BME280;10471;42.736;23.346;2023-07-13T04:16:43;95780.50;;;19.85;100.00
20624;BME280;10471;42.736;23.346;2023-07-13T04:19:09;95774.63;;;19.91;100.00
20624;BME280;10471;42.736;23.346;2023-07-13T04:21:35;95780.78;;;19.92;100.00
20624;BME280;10471;42.736;23.346;2023-07-13T04:24:01;95782.50;;;19.96;100.00
20624;BME280;10471;42.736;23.346;2023-07-13T04:26:28;95792.06;;;20.06;100.00
20624;BME280;10471;42.736;23.346;2023-07-13T04:28:54;95788.41;;;20.10;100.00
20624;BME280;10471;42.736;23.346;2023-07-13T04:31:20;95794.03;;;20.17;100.00
20624;BME280;10471;42.736;23.346;2023-07-13T04:33:45;95798.09;;;20.23;100.00
20624;BME280;10471;42.736;23.346;2023-07-13T04:36:11;95800.97;;;20.18;100.00
20624;BME280;10471;42.736;23.346;2023-07-13T04:38:36;95794.31;;;20.24;100.00
20624;BME280;10471;42.736;23.346;2023-07-13T04:41:05;95796.81;;;20.29;100.00
20624;BME280;10471;42.736;23.346;2023-07-13T04:43:32;95803.72;;;20.30;100.00
20624;BME280;10471;42.736;23.346;2023-07-13T04:46:03;95795.75;;;20.42;100.00
20624;BME280;10471;42.736;23.346;2023-07-13T04:48:29;95804.25;;;20.44;100.00
20624;BME280;10471;42.736;23.346;2023-07-13T04:50:55;95797.59;;;20.50;100.00
20624;BME280;10471;42.736;23.346;2023-07-13T04:53:22;95803.34;;;20.40;100.00
20624;BME280;10471;42.736;23.346;2023-07-13T04:55:47;95813.53;;;20.46;100.00
20624;BME280;10471;42.736;23.346;2023-07-13T04:58:13;95809.50;;;20.61;100.00
20624;BME280;10471;42.736;23.346;2023-07-13T05:00:39;95812.38;;;20.76;100.00
20624;BME280;10471;42.736;23.346;2023-07-13T05:03:04;95821.94;;;20.86;100.00
20624;BME280;10471;42.736;23.346;2023-07-13T05:05:30;95817.75;;;20.97;100.00
20624;BME280;10471;42.736;23.346;2023-07-13T05:07:55;95817.78;;;21.08;100.00
20624;BME280;10471;42.736;23.346;2023-07-13T05:10:21;95817.84;;;21.20;100.00
20624;BME280;10471;42.736;23.346;2023-07-13T05:12:47;95814.53;;;21.35;100.00
20624;BME280;10471;42.736;23.346;2023-07-13T05:15:12;95811.53;;;21.49;100.00
20624;BME280;10471;42.736;23.346;2023-07-13T05:17:38;95810.81;;;21.60;100.00
20624;BME280;10471;42.736;23.346;2023-07-13T05:20:07;95815.72;;;21.70;100.00
20624;BME280;10471;42.736;23.346;2023-07-13T05:22:33;95821.59;;;21.84;100.00
20624;BME280;10471;42.736;23.346;2023-07-13T05:25:00;95813.75;;;21.91;100.00
20624;BME280;10471;42.736;23.346;2023-07-13T05:27:26;95811.75;;;22.00;100.00
20624;BME280;10471;42.736;23.346;2023-07-13T05:29:51;95817.56;;;22.14;100.00
20624;BME280;10471;42.736;23.346;2023-07-13T05:32:17;95817.34;;;22.19;100.00
20624;BME280;10471;42.736;23.346;2023-07-13T05:34:44;95824.81;;;22.25;100.00
20624;BME280;10471;42.736;23.346;2023-07-13T05:37:09;95826.19;;;22.31;100.00
20624;BME280;10471;42.736;23.346;2023-07-13T05:39:35;95831.34;;;22.48;100.00
20624;BME280;10471;42.736;23.346;2023-07-13T05:42:01;95825.72;;;22.65;100.00
20624;BME280;10471;42.736;23.346;2023-07-13T05:44:27;95825.41;;;22.82;100.00
20624;BME280;10471;42.736;23.346;2023-07-13T05:46:52;95831.34;;;22.99;100.00
20624;BME280;10471;42.736;23.346;2023-07-13T05:49:18;95841.81;;;23.16;100.00
20624;BME280;10471;42.736;23.346;2023-07-13T05:51:43;95843.59;;;23.24;100.00
20624;BME280;10471;42.736;23.346;2023-07-13T05:54:09;95830.75;;;23.33;100.00
20624;BME280;10471;42.736;23.346;2023-07-13T05:56:34;95822.63;;;23.45;100.00
20624;BME280;10471;42.736;23.346;2023-07-13T05:59:00;95827.72;;;23.62;100.00
20624;BME280;10471;42.736;23.346;2023-07-13T06:01:25;95817.31;;;23.76;100.00
20624;BME280;10471;42.736;23.346;2023-07-13T06:03:51;95819.69;;;23.92;100.00
20624;BME280;10471;42.736;23.346;2023-07-13T06:06:16;95817.50;;;24.13;100.00
20624;BME280;10471;42.736;23.346;2023-07-13T06:08:42;95825.91;;;24.27;100.00
20624;BME280;10471;42.736;23.346;2023-07-13T06:13:36;95835.53;;;24.59;100.00
20624;BME280;10471;42.736;23.346;2023-07-13T06:16:02;95833.31;;;24.80;100.00
20624;BME280;10471;42.736;23.346;2023-07-13T06:18:30;95830.75;;;24.87;100.00
20624;BME280;10471;42.736;23.346;2023-07-13T06:20:56;95825.16;;;24.95;100.00
20624;BME280;10471;42.736;23.346;2023-07-13T06:23:22;95833.31;;;24.99;100.00
20624;BME280;10471;42.736;23.346;2023-07-13T06:25:47;95842.00;;;25.08;100.00
20624;BME280;10471;42.736;23.346;2023-07-13T06:28:13;95838.25;;;25.12;100.00
20624;BME280;10471;42.736;23.346;2023-07-13T06:30:39;95842.88;;;25.12;100.00
20624;BME280;10471;42.736;23.346;2023-07-13T06:33:04;95836.03;;;25.17;100.00
20624;BME280;10471;42.736;23.346;2023-07-13T06:35:30;95834.63;;;25.23;100.00
20624;BME280;10471;42.736;23.346;2023-07-13T06:37:55;95833.50;;;25.24;100.00
20624;BME280;10471;42.736;23.346;2023-07-13T06:40:21;95832.44;;;25.29;100.00
20624;BME280;10471;42.736;23.346;2023-07-13T06:42:46;95828.78;;;25.40;100.00
20624;BME280;10471;42.736;23.346;2023-07-13T06:45:11;95826.31;;;25.51;100.00
20624;BME280;10471;42.736;23.346;2023-07-13T06:47:37;95826.66;;;25.49;100.00
20624;BME280;10471;42.736;23.346;2023-07-13T07:06:00;95833.56;;;26.84;90.68
20624;BME280;10471;42.736;23.346;2023-07-13T07:08:25;95826.69;;;26.90;91.86
20624;BME280;10471;42.736;23.346;2023-07-13T07:10:50;95830.53;;;26.89;88.22
20624;BME280;10471;42.736;23.346;2023-07-13T07:13:19;95826.81;;;26.97;89.02
20624;BME280;10471;42.736;23.346;2023-07-13T07:15:44;95818.03;;;27.07;86.63
20624;BME280;10471;42.736;23.346;2023-07-13T07:18:10;95811.88;;;27.10;88.12
20624;BME280;10471;42.736;23.346;2023-07-13T07:20:35;95821.66;;;27.18;85.38
20624;BME280;10471;42.736;23.346;2023-07-13T07:23:01;95825.72;;;27.34;86.32
20624;BME280;10471;42.736;23.346;2023-07-13T07:25:26;95821.59;;;27.44;84.41
20624;BME280;10471;42.736;23.346;2023-07-13T07:27:52;95816.03;;;27.33;82.29
20624;BME280;10471;42.736;23.346;2023-07-13T07:30:17;95817.16;;;27.29;80.59
20624;BME280;10471;42.736;23.346;2023-07-13T07:32:42;95816.53;;;27.42;77.68
20624;BME280;10471;42.736;23.346;2023-07-13T07:35:08;95814.25;;;27.48;77.23
20624;BME280;10471;42.736;23.346;2023-07-13T07:37:33;95812.31;;;27.48;79.50
20624;BME280;10471;42.736;23.346;2023-07-13T07:39:59;95804.28;;;27.55;80.12
20624;BME280;10471;42.736;23.346;2023-07-13T07:42:25;95811.09;;;27.75;84.42
20624;BME280;10471;42.736;23.346;2023-07-13T07:44:50;95807.00;;;27.91;77.99
20624;BME280;10471;42.736;23.346;2023-07-13T07:47:16;95806.25;;;27.94;69.13
20624;BME280;10471;42.736;23.346;2023-07-13T07:49:41;95806.25;;;27.94;72.09
20624;BME280;10471;42.736;23.346;2023-07-13T07:52:07;95795.50;;;28.05;76.03
20624;BME280;10471;42.736;23.346;2023-07-13T07:54:32;95787.09;;;28.17;75.99
20624;BME280;10471;42.736;23.346;2023-07-13T07:56:58;95792.19;;;28.25;72.86
20624;BME280;10471;42.736;23.346;2023-07-13T07:59:23;95792.28;;;28.39;73.83
20624;BME280;10471;42.736;23.346;2023-07-13T08:01:49;95788.53;;;28.54;78.75
20624;BME280;10471;42.736;23.346;2023-07-13T08:04:16;95783.63;;;28.77;80.31
20624;BME280;10471;42.736;23.346;2023-07-13T08:06:41;95783.72;;;28.91;76.21
20624;BME280;10471;42.736;23.346;2023-07-13T08:09:06;95774.47;;;29.06;78.09
20624;BME280;10471;42.736;23.346;2023-07-13T08:11:33;95778.41;;;29.22;72.44
20624;BME280;10471;42.736;23.346;2023-07-13T08:13:59;95776.09;;;29.31;68.98
20624;BME280;10471;42.736;23.346;2023-07-13T08:16:24;95775.41;;;29.37;74.53
20624;BME280;10471;42.736;23.346;2023-07-13T08:18:50;95775.41;;;29.48;68.21
20624;BME280;10471;42.736;23.346;2023-07-13T08:21:15;95767.31;;;29.58;71.43
20624;BME280;10471;42.736;23.346;2023-07-13T08:23:40;95763.44;;;29.73;75.92
20624;BME280;10471;42.736;23.346;2023-07-13T08:26:06;95766.94;;;29.84;68.46
20624;BME280;10471;42.736;23.346;2023-07-13T08:28:32;95760.78;;;29.94;68.81
20624;BME280;10471;42.736;23.346;2023-07-13T08:31:05;95757.66;;;29.92;69.97
20624;BME280;10471;42.736;23.346;2023-07-13T08:33:33;95754.53;;;29.97;63.16
20624;BME280;10471;42.736;23.346;2023-07-13T08:35:59;95752.16;;;29.85;63.39
20624;BME280;10471;42.736;23.346;2023-07-13T08:38:25;95754.94;;;29.99;65.88
20624;BME280;10471;42.736;23.346;2023-07-13T08:40:55;95740.53;;;30.02;62.58
20624;BME280;10471;42.736;23.346;2023-07-13T08:43:26;95734.34;;;30.05;65.33
20624;BME280;10471;42.736;23.346;2023-07-13T08:48:47;95741.31;;;30.34;67.93
20624;BME280;10471;42.736;23.346;2023-07-13T08:51:24;95744.41;;;30.50;70.62
20624;BME280;10471;42.736;23.346;2023-07-13T08:53:56;95746.72;;;30.61;65.55
20624;BME280;10471;42.736;23.346;2023-07-13T08:56:25;95764.19;;;30.74;67.70
20624;BME280;10471;42.736;23.346;2023-07-13T08:59:00;95762.22;;;30.78;58.20
20624;BME280;10471;42.736;23.346;2023-07-13T09:01:47;95765.34;;;30.80;62.66
20624;BME280;10471;42.736;23.346;2023-07-13T09:04:16;95774.72;;;30.62;58.21
20624;BME280;10471;42.736;23.346;2023-07-13T09:11:55;95772.41;;;30.64;61.21
20624;BME280;10471;42.736;23.346;2023-07-13T09:14:33;95772.34;;;30.78;61.93
20624;BME280;10471;42.736;23.346;2023-07-13T09:17:03;95769.59;;;30.88;58.29
20624;BME280;10471;42.736;23.346;2023-07-13T09:19:32;95767.25;;;31.01;59.93
20624;BME280;10471;42.736;23.346;2023-07-13T09:21:59;95762.09;;;31.20;65.33
20624;BME280;10471;42.736;23.346;2023-07-13T09:24:41;95762.78;;;31.38;56.39
20624;BME280;10471;42.736;23.346;2023-07-13T09:27:14;95766.66;;;31.44;54.03
20624;BME280;10471;42.736;23.346;2023-07-13T09:29:47;95772.09;;;31.51;56.28
20624;BME280;10471;42.736;23.346;2023-07-13T09:32:18;95765.00;;;31.64;54.72
20624;BME280;10471;42.736;23.346;2023-07-13T09:34:53;95764.19;;;31.70;55.03
20624;BME280;10471;42.736;23.346;2023-07-13T09:37:22;95760.31;;;31.68;53.05
20624;BME280;10471;42.736;23.346;2023-07-13T09:39:49;95752.38;;;31.87;55.16
20624;BME280;10471;42.736;23.346;2023-07-13T09:42:18;95748.31;;;32.12;56.78
20624;BME280;10471;42.736;23.346;2023-07-13T09:47:18;95731.22;;;32.45;50.26
20624;BME280;10471;42.736;23.346;2023-07-13T09:49:44;95735.09;;;32.48;53.06
20624;BME280;10471;42.736;23.346;2023-07-13T09:52:15;95725.13;;;32.71;50.26
20624;BME280;10471;42.736;23.346;2023-07-13T09:54:44;95722.41;;;32.71;50.57
20624;BME280;10471;42.736;23.346;2023-07-13T09:57:19;95725.75;;;32.85;48.86
20624;BME280;10471;42.736;23.346;2023-07-13T09:59:50;95726.44;;;32.93;49.17
20624;BME280;10471;42.736;23.346;2023-07-13T10:02:30;95721.66;;;33.04;51.96
20624;BME280;10471;42.736;23.346;2023-07-13T10:05:04;95717.81;;;32.94;49.13
20624;BME280;10471;42.736;23.346;2023-07-13T10:07:31;95708.28;;;33.09;49.75
20624;BME280;10471;42.736;23.346;2023-07-13T10:09:59;95709.72;;;33.21;49.26
20624;BME280;10471;42.736;23.346;2023-07-13T10:12:30;95703.38;;;33.27;49.43
20624;BME280;10471;42.736;23.346;2023-07-13T10:15:01;95707.31;;;33.52;49.92
20624;BME280;10471;42.736;23.346;2023-07-13T10:17:31;95710.56;;;33.70;48.83
20624;BME280;10471;42.736;23.346;2023-07-13T10:20:02;95706.03;;;33.60;48.98
20624;BME280;10471;42.736;23.346;2023-07-13T10:22:59;95708.13;;;33.49;46.00
20624;BME280;10471;42.736;23.346;2023-07-13T10:25:29;95698.25;;;33.59;45.72
20624;BME280;10471;42.736;23.346;2023-07-13T10:30:49;95683.88;;;34.04;45.53
20624;BME280;10471;42.736;23.346;2023-07-13T10:33:15;95688.22;;;34.01;44.62
20624;BME280;10471;42.736;23.346;2023-07-13T10:35:43;95683.91;;;34.23;43.13
20624;BME280;10471;42.736;23.346;2023-07-13T10:38:18;95684.00;;;34.20;42.47
20624;BME280;10471;42.736;23.346;2023-07-13T10:40:58;95678.94;;;34.38;41.40
20624;BME280;10471;42.736;23.346;2023-07-13T10:43:31;95676.56;;;34.40;42.43
20624;BME280;10471;42.736;23.346;2023-07-13T10:45:59;95678.19;;;34.37;40.46
20624;BME280;10471;42.736;23.346;2023-07-13T10:48:26;95667.50;;;34.66;42.88
20624;BME280;10471;42.736;23.346;2023-07-13T10:50:54;95665.16;;;34.64;39.86
20624;BME280;10471;42.736;23.346;2023-07-13T10:53:21;95652.59;;;34.67;41.29
20624;BME280;10471;42.736;23.346;2023-07-13T11:06:15;95649.97;;;35.69;37.13
20624;BME280;10471;42.736;23.346;2023-07-13T11:18:48;95630.25;;;36.50;33.40
20624;BME280;10471;42.736;23.346;2023-07-13T11:21:22;95638.19;;;36.60;33.99
20624;BME280;10471;42.736;23.346;2023-07-13T11:24:01;95636.56;;;36.75;33.74
20624;BME280;10471;42.736;23.346;2023-07-13T11:31:54;95627.16;;;37.54;32.09
20624;BME280;10471;42.736;23.346;2023-07-13T11:34:39;95612.38;;;37.85;33.65
20624;BME280;10471;42.736;23.346;2023-07-13T11:37:12;95619.13;;;37.35;31.56
20624;BME280;10471;42.736;23.346;2023-07-13T11:39:42;95614.88;;;36.93;31.96
20624;BME280;10471;42.736;23.346;2023-07-13T11:42:12;95621.47;;;36.83;32.29
20624;BME280;10471;42.736;23.346;2023-07-13T11:44:46;95619.72;;;36.89;32.24
20624;BME280;10471;42.736;23.346;2023-07-13T11:47:18;95610.28;;;37.15;32.20
20624;BME280;10471;42.736;23.346;2023-07-13T11:49:48;95613.03;;;37.15;32.46
20624;BME280;10471;42.736;23.346;2023-07-13T11:52:17;95604.09;;;37.11;32.64
20624;BME280;10471;42.736;23.346;2023-07-13T11:54:53;95600.34;;;36.92;33.06
20624;BME280;10471;42.736;23.346;2023-07-13T11:57:30;95604.22;;;37.07;32.57
20624;BME280;10471;42.736;23.346;2023-07-13T11:59:59;95603.34;;;37.10;32.13
20624;BME280;10471;42.736;23.346;2023-07-13T12:02:34;95602.88;;;37.24;32.48
20624;BME280;10471;42.736;23.346;2023-07-13T12:05:02;95596.63;;;37.48;32.88
20624;BME280;10471;42.736;23.346;2023-07-13T12:07:31;95589.41;;;37.30;31.83
20624;BME280;10471;42.736;23.346;2023-07-13T12:12:36;95584.75;;;37.51;31.71
20624;BME280;10471;42.736;23.346;2023-07-13T12:15:08;95580.34;;;37.41;32.46
20624;BME280;10471;42.736;23.346;2023-07-13T12:17:34;95572.88;;;37.17;34.26
20624;BME280;10471;42.736;23.346;2023-07-13T12:20:03;95564.03;;;37.59;33.33
20624;BME280;10471;42.736;23.346;2023-07-13T12:22:34;95565.53;;;37.85;34.07
20624;BME280;10471;42.736;23.346;2023-07-13T12:24:59;95561.47;;;38.11;32.09
20624;BME280;10471;42.736;23.346;2023-07-13T12:27:27;95565.00;;;38.24;33.52
20624;BME280;10471;42.736;23.346;2023-07-13T12:32:25;95548.31;;;38.49;32.54
20624;BME280;10471;42.736;23.346;2023-07-13T12:34:56;95551.94;;;38.58;34.29
20624;BME280;10471;42.736;23.346;2023-07-13T12:37:23;95547.38;;;38.94;33.58
20624;BME280;10471;42.736;23.346;2023-07-13T12:39:49;95548.16;;;39.34;33.38
20624;BME280;10471;42.736;23.346;2023-07-13T12:47:23;95526.78;;;38.35;32.46
20624;BME280;10471;42.736;23.346;2023-07-13T12:49:54;95532.84;;;38.73;33.78
20624;BME280;10471;42.736;23.346;2023-07-13T12:52:37;95536.78;;;39.23;32.93
20624;BME280;10471;42.736;23.346;2023-07-13T12:55:12;95530.16;;;39.12;31.01
20624;BME280;10471;42.736;23.346;2023-07-13T12:57:49;95531.31;;;39.41;31.03
20624;BME280;10471;42.736;23.346;2023-07-13T13:03:02;95519.38;;;39.44;32.36
20624;BME280;10471;42.736;23.346;2023-07-13T13:05:29;95526.16;;;39.52;31.64
20624;BME280;10471;42.736;23.346;2023-07-13T13:07:55;95519.59;;;39.19;30.70
20624;BME280;10471;42.736;23.346;2023-07-13T13:10:21;95507.06;;;39.36;30.65
20624;BME280;10471;42.736;23.346;2023-07-13T13:12:47;95521.47;;;39.31;30.00
20624;BME280;10471;42.736;23.346;2023-07-13T13:15:13;95508.06;;;39.51;31.00
20624;BME280;10471;42.736;23.346;2023-07-13T13:17:39;95510.25;;;39.74;30.58
20624;BME280;10471;42.736;23.346;2023-07-13T13:20:15;95508.09;;;39.69;31.37
20624;BME280;10471;42.736;23.346;2023-07-13T13:22:41;95506.72;;;39.82;30.75
20624;BME280;10471;42.736;23.346;2023-07-13T13:25:10;95505.63;;;39.71;30.25
20624;BME280;10471;42.736;23.346;2023-07-13T13:27:35;95506.22;;;39.66;29.70
20624;BME280;10471;42.736;23.346;2023-07-13T13:30:02;95507.63;;;39.70;29.83
20624;BME280;10471;42.736;23.346;2023-07-13T13:32:27;95494.63;;;39.98;33.03
20624;BME280;10471;42.736;23.346;2023-07-13T13:34:53;95493.72;;;40.01;29.67
20624;BME280;10471;42.736;23.346;2023-07-13T13:37:21;95484.78;;;39.97;29.20
20624;BME280;10471;42.736;23.346;2023-07-13T13:39:48;95489.09;;;39.89;30.75
20624;BME280;10471;42.736;23.346;2023-07-13T13:42:14;95491.09;;;39.22;30.53
20624;BME280;10471;42.736;23.346;2023-07-13T13:44:39;95494.66;;;39.41;31.41
20624;BME280;10471;42.736;23.346;2023-07-13T13:47:34;95486.91;;;39.66;30.57
20624;BME280;10471;42.736;23.346;2023-07-13T13:49:58;95487.81;;;39.63;30.89
20624;BME280;10471;42.736;23.346;2023-07-13T13:52:25;95491.53;;;39.96;30.40
20624;BME280;10471;42.736;23.346;2023-07-13T13:54:51;95494.25;;;39.51;30.60
20624;BME280;10471;42.736;23.346;2023-07-13T13:57:22;95485.22;;;39.68;29.97